Flight Track Log - Related Links

Times and Time Zones

All times are in EDT time to prevent confusion due to time zone crossing. See the EJA929 flight status page for this flight to view local times or setup timezone preferences in your user account.

Time Position Orientation Groundspeed Altitude Reporting Facility
EDT Latitude Longitude Course Direction KTS MPH feet Rate Location/Type
Fri 01:08:34 PM 33.6333 -117.8833 192° South 196 226 2,100  Level Southern California TRACON
Fri 01:09:34 PM 33.5667 -117.9000 192° South 236 272 4,200 1,935 Climbing Southern California TRACON
Fri 01:10:07 PM 33.5400 -117.8789 147° Southeast 242 278 5,100 2,084 Climbing Los Angeles Center
Fri 01:11:09 PM 33.5106 -117.8053 116° Southeast 270 311 7,500 2,177 Climbing Los Angeles Center
Fri 01:12:11 PM 33.5322 -117.7106 75° East 289 333 9,600 1,584 Climbing Los Angeles Center
Fri 01:13:14 PM 33.5608 -117.5867 74° East 320 368 10,800 1,152 Climbing Los Angeles Center
Fri 01:14:16 PM 33.5864 -117.4703 75° East 355 409 12,000 1,210 Climbing Los Angeles Center
Fri 01:15:18 PM 33.5903 -117.3461 88° East 370 426 13,300 1,161 Climbing Los Angeles Center
Fri 01:16:20 PM 33.5942 -117.2208 88° East 376 433 14,400 968 Climbing Los Angeles Center
Fri 01:17:22 PM 33.5992 -117.1169 87° East 383 441 15,300 1,065 Climbing Los Angeles Center
Fri 01:18:24 PM 33.6042 -116.9586 88° East 394 453 16,600 1,645 Climbing Los Angeles Center
Fri 01:19:26 PM 33.6083 -116.8278 88° East 396 456 18,700 1,776 Climbing Los Angeles Center
Fri 01:20:29 PM 33.6122 -116.6681 88° East 389 448 20,300 1,488 Climbing Los Angeles Center
Fri 01:21:31 PM 33.6161 -116.5367 88° East 394 453 21,800 1,500 Climbing Los Angeles Center
Fri 01:22:33 PM 33.6208 -116.4039 88° East 397 457 23,400 1,452 Climbing Los Angeles Center
Fri 01:23:35 PM 33.6256 -116.2706 88° East 399 459 24,800 774 Climbing Los Angeles Center
Fri 01:24:37 PM 33.6269 -116.1275 89° East 429 494 25,000 97 Climbing Los Angeles Center
Fri 01:25:39 PM 33.6244 -115.9761 91° East 448 516 25,000 339 Level Los Angeles Center
Fri 01:26:41 PM 33.6211 -115.7900 91° East 463 533 25,700 864 Climbing Los Angeles Center
Fri 01:27:44 PM 33.6172 -115.6356 92° East 462 532 26,800 624 Climbing Los Angeles Center
Fri 01:28:46 PM 33.6128 -115.4797 92° East 468 539 27,000 97 Climbing Los Angeles Center
Fri 01:29:48 PM 33.6089 -115.3275 92° East 459 528 27,000 242 Level Los Angeles Center
Fri 01:30:50 PM 33.6064 -115.1786 91° East 450 518 27,500 774 Climbing Los Angeles Center
Fri 01:31:52 PM 33.6019 -115.0347 92° East 436 502 28,600 1,226 Climbing Los Angeles Center
Fri 01:33:07 PM 33.5975 -114.8297 91° East 441 507 30,300 1,226 Climbing Los Angeles Center
Fri 01:34:09 PM 33.5889 -114.6808 94° East 447 514 31,400 871 Climbing Los Angeles Center
Fri 01:35:11 PM 33.5747 -114.5289 96° East 461 531 32,100 1,273 Climbing Los Angeles Center
Fri 01:36:21 PM 33.5611 -114.3506 95° East 462 532 34,200 1,818 Climbing Albuquerque Center
Fri 01:37:23 PM 33.5469 -114.2022 96° East 452 520 36,100 1,597 Climbing Albuquerque Center
Fri 01:38:25 PM 33.5331 -114.0547 96° East 448 516 37,500 1,355 Climbing Albuquerque Center
Fri 01:39:27 PM 33.5200 -113.9072 96° East 446 513 38,900 1,548 Climbing Albuquerque Center
Fri 01:40:29 PM 33.5019 -113.7303 97° East 446 513 40,700 1,016 Climbing Albuquerque Center
Fri 01:41:31 PM 33.4867 -113.5814 97° East 448 516 41,000 242 Climbing Albuquerque Center
Fri 01:42:33 PM 33.4725 -113.4239 96° East 469 540 41,200 581 Climbing Albuquerque Center
Fri 01:43:35 PM 33.4333 -113.2692 107° East 484 557 42,200 871 Climbing Albuquerque Center
Fri 01:44:37 PM 33.3700 -113.1089 115° Southeast 479 551 43,000 387 Climbing Albuquerque Center
Fri 01:45:39 PM 33.3183 -112.9792 115° Southeast 482 555 43,000  Level Albuquerque Center
Fri 01:46:41 PM 33.2606 -112.8325 115° Southeast 485 558 43,000  Level Albuquerque Center
Fri 01:47:43 PM 33.1903 -112.6572 116° Southeast 486 559 43,000  Level Albuquerque Center
Fri 01:48:45 PM 33.1269 -112.5042 116° Southeast 482 555 43,000  Level Albuquerque Center
Fri 01:49:47 PM 33.0953 -112.3592 105° East 489 563 43,000  Level Albuquerque Center
Fri 01:50:49 PM 33.0642 -112.1906 102° East 491 565 43,000  Level Albuquerque Center
Fri 01:51:51 PM 33.0356 -112.0306 102° East 495 570 43,000  Level Albuquerque Center
Fri 01:52:53 PM 33.0058 -111.8711 102° East 496 571 43,000  Level Albuquerque Center
Fri 01:53:55 PM 32.9758 -111.7114 103° East 497 572 43,000  Level Albuquerque Center
Fri 01:54:57 PM 32.9458 -111.5517 103° East 498 573 43,000 242 Level Albuquerque Center
Fri 01:55:59 PM 32.9089 -111.3592 103° East 498 573 43,500 435 Climbing Albuquerque Center
Fri 01:57:01 PM 32.8772 -111.1997 103° East 499 574 43,900 435 Climbing Albuquerque Center
Fri 01:58:03 PM 32.8469 -111.0394 103° East 498 573 44,400 484 Climbing Albuquerque Center
Fri 01:59:05 PM 32.8156 -110.8806 103° East 497 572 44,900 290 Climbing Albuquerque Center
Fri 02:00:07 PM 32.7842 -110.7225 103° East 494 568 45,000 48 Climbing Albuquerque Center
Fri 02:01:09 PM 32.7478 -110.5408 103° East 493 567 45,000  Level Albuquerque Center
Fri 02:02:11 PM 32.7167 -110.3833 103° East 492 566 45,000  Level Albuquerque Center
Fri 02:03:13 PM 32.6844 -110.2275 104° East 489 563 45,000  Level Albuquerque Center
Fri 02:04:15 PM 32.6536 -110.0728 103° East 486 559 45,000  Level Albuquerque Center
Fri 02:05:17 PM 32.6211 -109.9178 104° East 486 559 45,000  Level Albuquerque Center
Fri 02:06:19 PM 32.5831 -109.7306 104° East 488 562 45,000  Level Albuquerque Center
Fri 02:07:21 PM 32.5469 -109.5728 105° East 497 572 45,000  Level Albuquerque Center
Fri 02:08:23 PM 32.5150 -109.4164 104° East 496 571 45,000  Level Albuquerque Center
Fri 02:09:24 PM 32.4828 -109.2600 104° East 494 568 45,000  Level Albuquerque Center
Fri 02:10:26 PM 32.4489 -109.1047 104° East 492 566 45,000  Level Albuquerque Center
Fri 02:11:28 PM 32.4094 -108.9164 104° East 494 568 45,000  Level Albuquerque Center
Fri 02:12:30 PM 32.3761 -108.7586 104° East 497 572 45,000  Level Albuquerque Center
Fri 02:13:32 PM 32.3422 -108.6028 104° East 495 570 45,000  Level Albuquerque Center
Fri 02:14:34 PM 32.3072 -108.4425 104° East 495 570 45,000  Level Albuquerque Center
Fri 02:15:36 PM 32.2728 -108.2850 104° East 496 571 45,000  Level Albuquerque Center
Fri 02:16:37 PM 32.2381 -108.1281 105° East 496 571 45,000  Level Albuquerque Center
Fri 02:17:39 PM 32.1964 -107.9397 105° East 497 572 45,000  Level Albuquerque Center
Fri 02:18:41 PM 32.1614 -107.7831 105° East 497 572 45,000  Level Albuquerque Center
Fri 02:19:43 PM 32.1275 -107.6264 104° East 496 571 45,000  Level Albuquerque Center
Fri 02:20:44 PM 32.0925 -107.4719 105° East 495 570 45,000  Level Albuquerque Center
Fri 02:21:46 PM 32.0567 -107.3181 105° East 493 567 45,000  Level Albuquerque Center
Fri 02:22:48 PM 32.0219 -107.1633 105° East 493 567 45,000  Level Albuquerque Center
Fri 02:23:50 PM 31.9808 -106.9794 105° East 491 565 45,000  Level Albuquerque Center
Fri 02:24:51 PM 31.9442 -106.8244 106° East 493 567 45,000  Level Albuquerque Center
Fri 02:25:53 PM 31.9075 -106.6694 106° East 495 570 45,000  Level Albuquerque Center
Fri 02:26:55 PM 31.8672 -106.5022 106° East 501 577 45,000  Level Albuquerque Center
Fri 02:27:57 PM 31.8328 -106.3428 104° East 505 581 45,000  Level Albuquerque Center
Fri 02:28:58 PM 31.8042 -106.1847 102° East 497 572 45,000  Level Albuquerque Center
Fri 02:30:00 PM 31.7858 -106.0278 98° East 486 559 45,000  Level Albuquerque Center
Fri 02:31:02 PM 31.7669 -105.8703 98° East 485 558 45,000  Level Albuquerque Center
Fri 02:32:03 PM 31.7478 -105.7131 98° East 486 559 45,000  Level Albuquerque Center
Fri 02:33:05 PM 31.7247 -105.5244 98° East 488 562 45,000  Level Albuquerque Center
Fri 02:34:07 PM 31.7058 -105.3658 98° East 489 563 45,000  Level Albuquerque Center
Fri 02:35:09 PM 31.6858 -105.2111 99° East 482 555 45,000  Level Albuquerque Center
Fri 02:36:10 PM 31.6667 -105.0519 98° East 484 557 45,000  Level Albuquerque Center
Fri 02:37:12 PM 31.6472 -104.8939 98° East 487 560 45,000  Level Albuquerque Center
Fri 02:38:14 PM 31.6264 -104.7369 99° East 486 559 45,000  Level Albuquerque Center
Fri 02:39:16 PM 31.6064 -104.5783 98° East 487 560 45,000  Level Albuquerque Center
Fri 02:40:17 PM 31.5853 -104.4225 99° East 486 559 45,000  Level Albuquerque Center
Fri 02:41:20 PM 31.5622 -104.2361 98° East 483 556 45,000  Level Albuquerque Center
Fri 02:42:21 PM 31.5417 -104.0786 99° East 487 560 45,000  Level Albuquerque Center
Fri 02:43:23 PM 31.5200 -103.9214 99° East 488 562 45,000  Level Albuquerque Center
Fri 02:44:24 PM 31.4989 -103.7636 99° East 489 563 45,000  Level Albuquerque Center
Fri 02:45:26 PM 31.4772 -103.6106 99° East 489 563 45,000  Level Albuquerque Center
Fri 02:46:28 PM 31.4556 -103.4536 99° East 489 563 45,000  Level Albuquerque Center
Fri 02:47:30 PM 31.4306 -103.2656 99° East 489 563 45,000  Level Albuquerque Center
Fri 02:48:31 PM 31.4114 -103.1069 98° East 492 566 45,000  Level Albuquerque Center
Fri 02:49:33 PM 31.3911 -102.9508 99° East 488 562 45,000  Level Albuquerque Center
Fri 02:50:35 PM 31.3706 -102.7933 99° East 490 564 45,000  Level Albuquerque Center
Fri 02:51:36 PM 31.3506 -102.6356 98° East 490 564 45,000  Level Albuquerque Center
Fri 02:52:38 PM 31.3300 -102.4750 98° East 528 608 45,000  Level Albuquerque Center
Fri 02:53:40 PM 31.3053 -102.2878 99° East 501 577 45,000  Level Albuquerque Center
Fri 02:54:42 PM 31.2847 -102.1300 99° East 495 570 45,000  Level Albuquerque Center
Fri 02:55:16 PM 31.2756 -102.0414 97° East 499 574 45,000  Level Houston Center
Fri 02:56:18 PM 31.2536 -101.8850 99° East 492 566 45,000  Level Houston Center
Fri 02:57:20 PM 31.2314 -101.7267 99° East 493 567 45,000  Level Houston Center
Fri 02:58:22 PM 31.2089 -101.5672 99° East 496 571 45,000  Level Houston Center
Fri 02:59:24 PM 31.1822 -101.3750 99° East 500 575 45,000  Level Houston Center
Fri 03:00:26 PM 31.1594 -101.2089 99° East 501 577 45,000  Level Houston Center
Fri 03:01:28 PM 31.1364 -101.0478 99° East 503 579 45,000  Level Houston Center
Fri 03:02:30 PM 31.1142 -100.8856 99° East 505 581 45,000  Level Houston Center
Fri 03:03:32 PM 31.0911 -100.7233 99° East 506 582 45,000  Level Houston Center
Fri 03:04:34 PM 31.0669 -100.5611 100° East 506 582 45,000  Level Houston Center
Fri 03:05:36 PM 31.0444 -100.3997 99° East 504 580 45,000  Level Houston Center
Fri 03:06:38 PM 31.0197 -100.2364 100° East 509 586 45,000  Level Houston Center
Fri 03:07:40 PM 30.9911 -100.0375 99° East 515 593 45,000  Level Houston Center
Fri 03:08:42 PM 30.9661 -99.8719 100° East 517 595 45,000 -48 Level Houston Center
Fri 03:09:44 PM 30.9403 -99.7056 100° East 519 597 44,900  Descending Houston Center
Fri 03:10:46 PM 30.9167 -99.5406 99° East 515 593 45,000 48 Climbing Houston Center
Fri 03:11:48 PM 30.8922 -99.3775 100° East 512 589 45,000  Level Houston Center
Fri 03:12:50 PM 30.8683 -99.2156 100° East 509 586 45,000  Level Houston Center
Fri 03:13:53 PM 30.8406 -99.0317 100° East 505 581 45,000  Level Houston Center
Fri 03:14:55 PM 30.8164 -98.8689 100° East 507 583 45,000  Level Houston Center
Fri 03:15:57 PM 30.7903 -98.7036 100° East 513 590 45,000  Level Houston Center
Fri 03:16:59 PM 30.7642 -98.5372 100° East 517 595 45,000  Level Houston Center
Fri 03:18:01 PM 30.7394 -98.3708 100° East 519 597 45,000  Level Houston Center
Fri 03:19:03 PM 30.7094 -98.1778 100° East 517 595 45,000  Level Houston Center
Fri 03:20:05 PM 30.6828 -98.0144 101° East 512 589 45,000  Level Houston Center
Fri 03:21:08 PM 30.6569 -97.8522 100° East 510 587 45,000  Level Houston Center
Fri 03:22:10 PM 30.6308 -97.6892 101° East 512 589 45,000  Level Houston Center
Fri 03:23:12 PM 30.6047 -97.5272 101° East 509 586 45,000  Level Houston Center
Fri 03:24:14 PM 30.5739 -97.3378 101° East 512 589 45,000  Level Houston Center
Fri 03:25:16 PM 30.5472 -97.1747 101° East 513 590 45,000  Level Houston Center
Fri 03:26:18 PM 30.5200 -97.0122 101° East 513 590 45,000  Level Houston Center
Fri 03:27:20 PM 30.4936 -96.8483 101° East 516 594 45,000  Level Houston Center
Fri 03:28:22 PM 30.4661 -96.6867 101° East 512 589 45,000  Level Houston Center
Fri 03:29:25 PM 30.4403 -96.5247 100° East 509 586 45,000  Level Houston Center
Fri 03:30:27 PM 30.4072 -96.3369 101° East 507 583 45,000  Level Houston Center
Fri 03:31:29 PM 30.3792 -96.1758 101° East 507 583 45,000  Level Houston Center
Fri 03:32:31 PM 30.3533 -96.0225 101° East 508 585 45,000  Level Houston Center
Fri 03:33:33 PM 30.3211 -95.8447 102° East 503 579 45,000  Level Houston Center
Fri 03:34:35 PM 30.2931 -95.6831 101° East 511 588 45,000  Level Houston Center
Fri 03:35:37 PM 30.2639 -95.5222 102° East 510 587 45,000  Level Houston Center
Fri 03:36:39 PM 30.2353 -95.3606 102° East 511 588 45,000  Level Houston Center
Fri 03:37:42 PM 30.2067 -95.1981 101° East 513 590 45,000  Level Houston Center
Fri 03:38:44 PM 30.1772 -95.0347 102° East 516 594 45,000  Level Houston Center
Fri 03:39:46 PM 30.1478 -94.8706 102° East 520 598 45,000  Level Houston Center
Fri 03:40:48 PM 30.1114 -94.6736 102° East 521 600 45,000  Level Houston Center
Fri 03:41:50 PM 30.0803 -94.5103 102° East 521 600 45,000  Level Houston Center
Fri 03:42:52 PM 30.0497 -94.3514 102° East 515 593 45,000  Level Houston Center
Fri 03:43:54 PM 30.0194 -94.1917 102° East 514 592 45,000  Level Houston Center
Fri 03:44:56 PM 29.9889 -94.0308 102° East 516 594 45,000  Level Houston Center
Fri 03:45:59 PM 29.9511 -93.8389 103° East 515 593 45,000  Level Houston Center
Fri 03:47:01 PM 29.9200 -93.6808 103° East 512 589 45,000  Level Houston Center
Fri 03:48:03 PM 29.8883 -93.5222 103° East 511 588 45,000 -48 Level Houston Center
Fri 03:49:05 PM 29.8575 -93.3631 103° East 514 592 44,900  Descending Houston Center
Fri 03:50:07 PM 29.8267 -93.2053 103° East 510 587 45,000 48 Climbing Houston Center
Fri 03:51:09 PM 29.7903 -93.0158 102° East 508 585 45,000  Level Houston Center
Fri 03:52:11 PM 29.7589 -92.8581 103° East 508 585 45,000  Level Houston Center
Fri 03:53:13 PM 29.7269 -92.6997 103° East 509 586 45,000  Level Houston Center
Fri 03:54:15 PM 29.6953 -92.5428 103° East 508 585 45,000  Level Houston Center
Fri 03:55:18 PM 29.6633 -92.3850 103° East 507 583 45,000  Level Houston Center
Fri 03:56:20 PM 29.6242 -92.1969 103° East 506 582 45,000  Level Houston Center
Fri 03:57:22 PM 29.5922 -92.0414 103° East 503 579 45,000  Level Houston Center
Fri 03:58:24 PM 29.5606 -91.8844 103° East 505 581 45,000  Level Houston Center
Fri 03:59:26 PM 29.5281 -91.7278 103° East 505 581 45,000  Level Houston Center
Fri 04:00:28 PM 29.4942 -91.5719 104° East 505 581 45,000  Level Houston Center
Fri 04:01:30 PM 29.4550 -91.3856 104° East 503 579 45,000  Level Houston Center
Fri 04:02:32 PM 29.4214 -91.2306 104° East 504 580 45,000  Level Houston Center
Fri 04:03:35 PM 29.3883 -91.0761 104° East 502 578 45,000  Level Houston Center
Fri 04:04:37 PM 29.3547 -90.9194 104° East 506 582 45,000  Level Houston Center
Fri 04:05:39 PM 29.3206 -90.7661 104° East 502 578 45,000  Level Houston Center
Fri 04:07:00 PM 29.2690 -90.5715 107° East  Level FlightAware Approximate
Fri 04:07:43 PM 29.2464 -90.4256 107° East 505 581 45,000  Level Houston Center
Fri 04:08:45 PM 29.2131 -90.2747 104° East 497 572 44,900 -48 Descending Houston Center
Fri 04:09:47 PM 29.1789 -90.1250 105° East 492 566 44,900 48 Level Houston Center
Fri 04:10:49 PM 29.1353 -89.9783 109° East 488 562 45,000  Climbing Houston Center
Fri 04:11:51 PM 29.0967 -89.8264 106° East 495 570 44,900 -48 Descending Houston Center
Fri 04:12:54 PM 29.0497 -89.6406 106° East 506 582 44,900 48 Level Houston Center
Fri 04:13:56 PM 29.0122 -89.4828 105° East 514 592 45,000 48 Climbing Houston Center
Fri 04:14:58 PM 28.9725 -89.3300 107° East 509 586 45,000  Level Houston Center
Fri 04:16:00 PM 28.9333 -89.1750 106° East 509 586 45,000  Level Houston Center
Fri 04:17:02 PM 28.8944 -89.0250 106° East 499 574 45,000  Level Houston Center
Fri 04:18:04 PM 28.8483 -88.8469 106° East 492 566 45,000  Level Houston Center
Fri 04:19:06 PM 28.8100 -88.6986 106° East 488 562 45,000  Level Houston Center
Fri 04:20:08 PM 28.7711 -88.5481 106° East 494 568 45,000 -48 Level Houston Center
Fri 04:21:10 PM 28.7333 -88.3986 106° East 494 568 44,900  Descending Houston Center
Fri 04:22:13 PM 28.6933 -88.2492 107° East 494 568 45,000  Climbing Houston Center
Fri 04:23:15 PM 28.6561 -88.0664 103° East 495 570 44,900  Descending Houston Center
Fri 04:24:17 PM 28.6264 -87.9372 105° East 487 560 45,000 48 Climbing Houston Center
Fri 04:25:19 PM 28.5950 -87.7917 104° East 479 551 45,000 -48 Level Houston Center
Fri 04:26:21 PM 28.5553 -87.6147 104° East 480 552 44,900  Descending Houston Center
Fri 04:27:23 PM 28.5214 -87.4636 104° East 490 564 45,000 48 Climbing Houston Center
Fri 04:28:25 PM 28.4867 -87.3144 105° East 491 565 45,000  Level Houston Center
Fri 04:29:27 PM 28.4528 -87.1661 105° East 488 562 45,000 -59 Level Houston Center
Fri 04:30:06 PM 28.4119 -87.0625 114° Southeast 483 556 44,900  Descending Jacksonville Center
Fri 04:31:06 PM 28.3561 -86.9164 113° Southeast 483 556 45,000 50 Climbing Jacksonville Center
Fri 04:32:06 PM 28.2997 -86.7844 116° Southeast 478 550 45,000  Level Jacksonville Center
Fri 04:33:06 PM 28.2453 -86.6458 114° Southeast 483 556 45,000  Level Jacksonville Center
Fri 04:34:06 PM 28.1889 -86.5094 115° Southeast 471 542 45,000  Level Jacksonville Center
Fri 04:35:06 PM 28.1342 -86.3708 114° Southeast 471 542 45,000  Level Jacksonville Center
Fri 04:36:06 PM 28.0794 -86.2375 115° Southeast 471 542 45,000  Level Jacksonville Center
Fri 04:37:06 PM 28.0264 -86.1111 115° Southeast 462 532 45,000 -50 Level Jacksonville Center
Fri 04:38:06 PM 27.9731 -85.9800 115° Southeast 462 532 44,900  Descending Jacksonville Center
Fri 04:39:06 PM 27.9200 -85.8469 114° Southeast 455 524 45,000 50 Climbing Jacksonville Center
Fri 04:40:06 PM 27.8644 -85.7139 115° Southeast 455 524 45,000  Level Jacksonville Center
Fri 04:41:00 PM 27.8136 -85.5997 117° Southeast 464 534 45,000  Level Miami Center
Fri 04:42:00 PM 27.7667 -85.4789 114° Southeast 469 540 45,000  Level Miami Center
Fri 04:43:00 PM 27.7103 -85.3389 114° Southeast 470 541 45,000  Level Miami Center
Fri 04:44:00 PM 27.6578 -85.2039 114° Southeast 476 548 45,000  Level Miami Center
Fri 04:45:00 PM 27.5950 -85.0636 117° Southeast 485 558 45,000  Level Miami Center
Fri 04:46:00 PM 27.5506 -84.9294 110° East 477 549 45,000 -50 Level Miami Center
Fri 04:47:00 PM 27.4975 -84.7950 114° Southeast 470 541 44,900 -50 Descending Miami Center
Fri 04:48:00 PM 27.4342 -84.6597 118° Southeast 470 541 44,900 50 Level Miami Center
Fri 04:49:00 PM 27.3828 -84.5278 114° Southeast 470 541 45,000 50 Climbing Miami Center
Fri 04:50:00 PM 27.3333 -84.3961 113° Southeast 470 541 45,000  Level Miami Center
Fri 04:51:00 PM 27.2781 -84.2594 114° Southeast 470 541 45,000  Level Miami Center
Fri 04:52:00 PM 27.2222 -84.1228 115° Southeast 470 541 45,000  Level Miami Center
Fri 04:53:00 PM 27.1664 -83.9889 115° Southeast 470 541 45,000  Level Miami Center
Fri 04:54:00 PM 27.1083 -83.8525 116° Southeast 470 541 45,000  Level Miami Center
Fri 04:55:00 PM 27.0586 -83.7167 112° Southeast 470 541 45,000  Level Miami Center
Fri 04:56:00 PM 26.9983 -83.5803 116° Southeast 475 547 45,000  Level Miami Center
Fri 04:57:00 PM 26.9461 -83.4469 114° Southeast 475 547 45,000  Level Miami Center
Fri 04:58:00 PM 26.8914 -83.3183 115° Southeast 465 535 45,000  Level Miami Center
Fri 04:59:00 PM 26.8364 -83.1897 116° Southeast 458 527 45,000  Level Miami Center
Fri 05:00:00 PM 26.7856 -83.0614 114° Southeast 453 521 45,000  Level Miami Center
Fri 05:01:00 PM 26.7267 -82.9233 116° Southeast 465 535 45,000 -450 Level Miami Center
Fri 05:02:00 PM 26.6642 -82.7692 114° Southeast 480 552 44,100 -1,800 Descending Miami Center
Fri 05:03:00 PM 26.6053 -82.6294 115° Southeast 491 565 41,400 -2,700 Descending Miami Center
Fri 05:04:00 PM 26.5419 -82.4869 116° Southeast 501 577 38,700 -2,650 Descending Miami Center
Fri 05:05:00 PM 26.4617 -82.3464 123° Southeast 514 592 36,100 -2,450 Descending Miami Center
Fri 05:06:00 PM 26.3708 -82.2100 127° Southeast 538 619 33,800 -2,500 Descending Miami Center
Fri 05:07:00 PM 26.2794 -82.0764 127° Southeast 549 632 31,100 -2,450 Descending Miami Center
Fri 05:08:00 PM 26.2128 -81.9600 123° Southeast 549 632 28,900 -2,350 Descending Miami Center
Fri 05:09:00 PM 26.1322 -81.8108 121° Southeast 536 617 26,400 -2,550 Descending Miami Center
Fri 05:10:00 PM 26.0700 -81.6719 116° Southeast 516 594 23,800 -2,650 Descending Miami Center
Fri 05:11:00 PM 26.0369 -81.5364 105° East 478 550 21,100 -2,700 Descending Miami Center
Fri 05:12:00 PM 26.0033 -81.4058 106° East 460 529 18,400 -2,650 Descending Miami Center
Fri 05:13:00 PM 25.9678 -81.2772 107° East 440 506 15,800 -2,500 Descending Miami Center
Fri 05:14:00 PM 25.9381 -81.1492 104° East 435 501 13,400 -2,545 Descending Miami Center
Fri 05:14:39 PM 25.9114 -81.0583 108° East 373 429 11,600 -2,147 Descending Miami Center
Fri 05:15:35 PM 25.8889 -80.9744 107° East 278 320 10,000 -1,077 Descending Miami Center
Fri 05:16:36 PM 25.8739 -80.9044 103° East 233 268 9,500 -787 Descending Miami Center
Fri 05:17:37 PM 25.8803 -80.8308 84° East 239 275 8,400 -1,180 Descending Miami Center
Fri 05:18:38 PM 25.8822 -80.7547 88° East 236 272 7,100 -1,230 Descending Miami Center
Fri 05:19:39 PM 25.8547 -80.6892 115° Southeast 232 267 5,900 -1,475 Descending Miami Center
Fri 05:20:40 PM 25.8272 -80.6261 116° Southeast 223 257 4,100 -1,359 Descending Miami Center
Fri 05:21:47 PM 25.8039 -80.5539 110° East 210 242 3,000 -488 Descending Miami Center
Fri 05:22:43 PM 25.7969 -80.5028 99° East 210 242 3,100 -256 Climbing Miami Center
Fri 05:23:44 PM 25.7944 -80.4336 92° East 214 246 2,500 -738 Descending Miami Center
Fri 05:24:45 PM 25.7978 -80.3783 86° East 153 176 1,600 -934 Descending Miami Center
Fri 05:25:46 PM 25.7989 -80.3297 89° East 140 161 600 -984 Descending Miami Center
Fri 05:27:00 PM 25.7954 -80.2901 20° North  Level Estimated
Fri 05:34:00 PM 25.7954 -80.2901 20° North  Level Estimated

Login

Don't have an account? Register now (free) for customized features, flight alerts, and more!